M/V C0sta Favolosa — ICPK — position and weather

sailwx.info

Track history (hours):
 
Tides and Currents Weather Stations Pressure Air Temp Water Temp Dewpoint Dewpoint Depression Visibility Wind Speed Wind Dir Waves Ship Positions

M/V C0sta Favolosa

Last reported at 2017-Dec-01 20:02 UTC. Time now 2017-Dec-12 04:26 UTC.
Position N 27°39' W 015°18'.
Warning: this ship's position is 10 days out of date.

Length 289 m; draft 8.3 m.

Type: Ship. MMSI: 247311100.

Date/timePositionNaut miles runAvg speedWind from/ knotsBaromVisibWave heightAir tempDewpointWater temp
2017-Dec-01 20:02N 27°39' W 015°18'218.4
2017-Dec-01 19:56N 27°41' W 015°17'818.3
2017-Dec-01 19:30N 27°48' W 015°14'918.3
2017-Dec-01 19:00N 27°57' W 015°14'816.7
2017-Dec-01 18:30N 28°05' W 015°17'714.5
2017-Dec-01 18:00N 28°07' W 015°25'1 1.8
2017-Dec-01 17:23N 28°08' W 015°25'0 0.0
2017-Dec-01 16:53N 28°08' W 015°25'0 0.0
2017-Dec-01 16:23N 28°08' W 015°25'0 0.0
2017-Dec-01 15:53N 28°08' W 015°25'0 0.0
2017-Dec-01 15:26N 28°08' W 015°25'0 0.0
2017-Dec-01 14:56N 28°08' W 015°25'0 0.0
2017-Dec-01 14:26N 28°08' W 015°25'0 0.0
2017-Dec-01 13:53N 28°08' W 015°25'0 0.0
2017-Dec-01 13:26N 28°08' W 015°25'0 0.0
2017-Dec-01 12:56N 28°08' W 015°25'0 0.0
2017-Dec-01 12:26N 28°08' W 015°25'0 0.0
2017-Dec-01 11:59N 28°08' W 015°25'0 0.0
2017-Dec-01 11:29N 28°08' W 015°25'0 0.0
2017-Dec-01 10:59N 28°08' W 015°25'0 0.0
2017-Dec-01 10:26N 28°08' W 015°25'0 0.0
2017-Dec-01 09:56N 28°08' W 015°25'0 0.0
2017-Dec-01 09:29N 28°08' W 015°25'0 0.0
2017-Dec-01 08:59N 28°08' W 015°25'0 0.0
2017-Dec-01 08:17N 28°08' W 015°25'0 0.0
2017-Dec-01 07:59N 28°08' W 015°25'0 0.2
2017-Dec-01 07:30N 28°08' W 015°25'2 3.6
2017-Dec-01 07:00N 28°07' W 015°24'5 9.6
2017-Dec-01 06:30N 28°05' W 015°19'612.7
2017-Dec-01 06:00N 28°06' W 015°12'612.9
2017-Dec-01 05:30N 28°08' W 015°05'612.4
2017-Dec-01 05:00N 28°08' W 014°58'713.0
2017-Dec-01 04:30N 28°06' W 014°51'713.1
2017-Dec-01 04:01N 28°04' W 014°44'712.8
2017-Dec-01 03:30N 28°00' W 014°38'612.7
2017-Dec-01 03:00N 27°56' W 014°32'713.4
2017-Dec-01 02:30N 27°53' W 014°26'1312.9
2017-Dec-01 01:30N 27°45' W 014°14'713.6
2017-Dec-01 01:00N 27°48' W 014°07'3315.7
2017-Nov-30 22:55N 28°08' W 013°38'  
2017-Nov-28 00:23N 36°13' W 007°33'  
2017-Nov-25 10:54N 41°19' E 002°10'4 9.8
2017-Nov-25 10:30N 41°16' E 002°14'24819.2
2017-Nov-24 21:33N 43°14' E 007°09'519.6
2017-Nov-24 21:18N 43°17' E 007°15'619.8
2017-Nov-24 21:00N 43°20' E 007°22'4319.7
2017-Nov-24 18:48N 43°47' E 008°08'819.7
2017-Nov-24 18:23N 43°53' E 008°17'719.6
2017-Nov-24 18:00N 43°59' E 008°23'1019.8
2017-Nov-24 17:30N 44°07' E 008°30'1019.1
2017-Nov-24 17:00N 44°16' E 008°33'4 7.4
2017-Nov-24 16:30N 44°19' E 008°29'0 0.0
2017-Nov-24 15:58N 44°19' E 008°29'0 0.0
2017-Nov-24 15:28N 44°19' E 008°29'0 0.0
2017-Nov-24 14:58N 44°19' E 008°29'0 0.0
2017-Nov-24 14:30N 44°19' E 008°29'0 0.0
2017-Nov-24 14:00N 44°19' E 008°29'0 0.0
2017-Nov-24 13:29N 44°19' E 008°29'0 0.0
2017-Nov-24 12:59N 44°19' E 008°29'0 0.0
2017-Nov-24 12:29N 44°19' E 008°29'0 0.0
2017-Nov-24 11:59N 44°19' E 008°29'0 0.0
2017-Nov-24 11:29N 44°19' E 008°29'0 0.0
2017-Nov-24 10:58N 44°19' E 008°29'0 0.0
2017-Nov-24 10:30N 44°19' E 008°29'0 0.0
2017-Nov-24 09:56N 44°19' E 008°29'0 0.0
2017-Nov-24 09:29N 44°19' E 008°29'0 0.0
2017-Nov-24 08:59N 44°19' E 008°29'0 0.0
2017-Nov-24 08:29N 44°19' E 008°29'0 0.0
2017-Nov-24 07:59N 44°19' E 008°29'0 0.0
2017-Nov-24 07:29N 44°19' E 008°29'0 0.0
2017-Nov-24 06:59N 44°19' E 008°29'1 1.2
2017-Nov-24 06:30N 44°19' E 008°30'3 5.1
2017-Nov-24 06:01N 44°17' E 008°33'815.4
2017-Nov-24 05:30N 44°10' E 008°31'815.3
2017-Nov-24 05:00N 44°03' E 008°26'712.8
2017-Nov-24 04:25N 43°57' E 008°20'814.4
2017-Nov-24 03:50N 43°50' E 008°13'2117.8
2017-Nov-24 02:39N 43°38' E 007°50'1717.9
2017-Nov-24 01:42N 43°27' E 007°31'317.5
2017-Nov-24 01:30N 43°25' E 007°27'917.6
2017-Nov-24 01:00N 43°20' E 007°17'918.1
2017-Nov-24 00:30N 43°15' E 007°07'78 4.7
2017-Nov-23 07:44N 43°21' E 005°20'0 0.0
2017-Nov-23 07:27N 43°21' E 005°20'0 0.4
2017-Nov-23 06:58N 43°21' E 005°20'2 4.0
2017-Nov-23 06:30N 43°21' E 005°17'611.2
2017-Nov-23 06:00N 43°17' E 005°12'816.7
2017-Nov-23 05:30N 43°09' E 005°07'817.0
2017-Nov-23 05:00N 43°03' E 004°59'713.5
2017-Nov-23 04:30N 42°58' E 004°52'  
Track history (hours):
 
Tides and Currents Weather Stations Pressure Air Temp Water Temp Dewpoint Dewpoint Depression Visibility Wind Speed Wind Dir Waves Ship Positions

M/V C0sta Favolosa

Last reported at 2017-Dec-01 20:02 UTC. Time now 2017-Dec-12 04:26 UTC.
Position N 27°39' W 015°18'.
Warning: this ship's position is 10 days out of date.

Length 289 m; draft 8.3 m.

Type: Ship. MMSI: 247311100.

Date/timePositionNaut miles runAvg speedWind from/ knotsBaromVisibWave heightAir tempDewpointWater temp
2017-Dec-01 20:02N 27°39' W 015°18'218.4
2017-Dec-01 19:56N 27°41' W 015°17'818.3
2017-Dec-01 19:30N 27°48' W 015°14'918.3
2017-Dec-01 19:00N 27°57' W 015°14'816.7
2017-Dec-01 18:30N 28°05' W 015°17'714.5
2017-Dec-01 18:00N 28°07' W 015°25'1 1.8
2017-Dec-01 17:23N 28°08' W 015°25'0 0.0
2017-Dec-01 16:53N 28°08' W 015°25'0 0.0
2017-Dec-01 16:23N 28°08' W 015°25'0 0.0
2017-Dec-01 15:53N 28°08' W 015°25'0 0.0
2017-Dec-01 15:26N 28°08' W 015°25'0 0.0
2017-Dec-01 14:56N 28°08' W 015°25'0 0.0
2017-Dec-01 14:26N 28°08' W 015°25'0 0.0
2017-Dec-01 13:53N 28°08' W 015°25'0 0.0
2017-Dec-01 13:26N 28°08' W 015°25'0 0.0
2017-Dec-01 12:56N 28°08' W 015°25'0 0.0
2017-Dec-01 12:26N 28°08' W 015°25'0 0.0
2017-Dec-01 11:59N 28°08' W 015°25'0 0.0
2017-Dec-01 11:29N 28°08' W 015°25'0 0.0
2017-Dec-01 10:59N 28°08' W 015°25'0 0.0
2017-Dec-01 10:26N 28°08' W 015°25'0 0.0
2017-Dec-01 09:56N 28°08' W 015°25'0 0.0
2017-Dec-01 09:29N 28°08' W 015°25'0 0.0
2017-Dec-01 08:59N 28°08' W 015°25'0 0.0
2017-Dec-01 08:17N 28°08' W 015°25'0 0.0
2017-Dec-01 07:59N 28°08' W 015°25'0 0.2
2017-Dec-01 07:30N 28°08' W 015°25'2 3.6
2017-Dec-01 07:00N 28°07' W 015°24'5 9.6
2017-Dec-01 06:30N 28°05' W 015°19'612.7
2017-Dec-01 06:00N 28°06' W 015°12'612.9
2017-Dec-01 05:30N 28°08' W 015°05'612.4
2017-Dec-01 05:00N 28°08' W 014°58'713.0
2017-Dec-01 04:30N 28°06' W 014°51'713.1
2017-Dec-01 04:01N 28°04' W 014°44'712.8
2017-Dec-01 03:30N 28°00' W 014°38'612.7
2017-Dec-01 03:00N 27°56' W 014°32'713.4
2017-Dec-01 02:30N 27°53' W 014°26'1312.9
2017-Dec-01 01:30N 27°45' W 014°14'713.6
2017-Dec-01 01:00N 27°48' W 014°07'3315.7
2017-Nov-30 22:55N 28°08' W 013°38'  
2017-Nov-28 00:23N 36°13' W 007°33'  
2017-Nov-25 10:54N 41°19' E 002°10'4 9.8
2017-Nov-25 10:30N 41°16' E 002°14'24819.2
2017-Nov-24 21:33N 43°14' E 007°09'519.6
2017-Nov-24 21:18N 43°17' E 007°15'619.8
2017-Nov-24 21:00N 43°20' E 007°22'4319.7
2017-Nov-24 18:48N 43°47' E 008°08'819.7
2017-Nov-24 18:23N 43°53' E 008°17'719.6
2017-Nov-24 18:00N 43°59' E 008°23'1019.8
2017-Nov-24 17:30N 44°07' E 008°30'1019.1
2017-Nov-24 17:00N 44°16' E 008°33'4 7.4
2017-Nov-24 16:30N 44°19' E 008°29'0 0.0
2017-Nov-24 15:58N 44°19' E 008°29'0 0.0
2017-Nov-24 15:28N 44°19' E 008°29'0 0.0
2017-Nov-24 14:58N 44°19' E 008°29'0 0.0
2017-Nov-24 14:30N 44°19' E 008°29'0 0.0
2017-Nov-24 14:00N 44°19' E 008°29'0 0.0
2017-Nov-24 13:29N 44°19' E 008°29'0 0.0
2017-Nov-24 12:59N 44°19' E 008°29'0 0.0
2017-Nov-24 12:29N 44°19' E 008°29'0 0.0
2017-Nov-24 11:59N 44°19' E 008°29'0 0.0
2017-Nov-24 11:29N 44°19' E 008°29'0 0.0
2017-Nov-24 10:58N 44°19' E 008°29'0 0.0
2017-Nov-24 10:30N 44°19' E 008°29'0 0.0
2017-Nov-24 09:56N 44°19' E 008°29'0 0.0
2017-Nov-24 09:29N 44°19' E 008°29'0 0.0
2017-Nov-24 08:59N 44°19' E 008°29'0 0.0
2017-Nov-24 08:29N 44°19' E 008°29'0 0.0
2017-Nov-24 07:59N 44°19' E 008°29'0 0.0
2017-Nov-24 07:29N 44°19' E 008°29'0 0.0
2017-Nov-24 06:59N 44°19' E 008°29'1 1.2
2017-Nov-24 06:30N 44°19' E 008°30'3 5.1
2017-Nov-24 06:01N 44°17' E 008°33'815.4
2017-Nov-24 05:30N 44°10' E 008°31'815.3
2017-Nov-24 05:00N 44°03' E 008°26'712.8
2017-Nov-24 04:25N 43°57' E 008°20'814.4
2017-Nov-24 03:50N 43°50' E 008°13'2117.8
2017-Nov-24 02:39N 43°38' E 007°50'1717.9
2017-Nov-24 01:42N 43°27' E 007°31'317.5
2017-Nov-24 01:30N 43°25' E 007°27'917.6
2017-Nov-24 01:00N 43°20' E 007°17'918.1
2017-Nov-24 00:30N 43°15' E 007°07'78 4.7
2017-Nov-23 07:44N 43°21' E 005°20'0 0.0
2017-Nov-23 07:27N 43°21' E 005°20'0 0.4
2017-Nov-23 06:58N 43°21' E 005°20'2 4.0
2017-Nov-23 06:30N 43°21' E 005°17'611.2
2017-Nov-23 06:00N 43°17' E 005°12'816.7
2017-Nov-23 05:30N 43°09' E 005°07'817.0
2017-Nov-23 05:00N 43°03' E 004°59'713.5
2017-Nov-23 04:30N 42°58' E 004°52'  

Dump ship's entire track history